sensor_id;sensor_type;location;lat;lon;timestamp;pressure;altitude;pressure_sealevel;temperature;humidity
47080;BME280;33067;49.296;14.470;2023-01-26T00:01:33;97491.44;;;4.11;43.04
47080;BME280;33067;49.296;14.470;2023-01-26T00:03:59;97485.48;;;4.56;43.18
47080;BME280;33067;49.296;14.470;2023-01-26T00:06:24;97483.09;;;4.42;43.17
47080;BME280;33067;49.296;14.470;2023-01-26T00:08:52;97480.59;;;4.55;42.71
47080;BME280;33067;49.296;14.470;2023-01-26T00:11:17;97475.64;;;3.73;43.81
47080;BME280;33067;49.296;14.470;2023-01-26T00:13:42;97473.67;;;4.17;43.77
47080;BME280;33067;49.296;14.470;2023-01-26T00:16:08;97465.76;;;4.31;43.26
47080;BME280;33067;49.296;14.470;2023-01-26T00:18:31;97460.59;;;4.07;43.91
47080;BME280;33067;49.296;14.470;2023-01-26T00:20:58;97459.23;;;3.94;44.56
47080;BME280;33067;49.296;14.470;2023-01-26T00:23:23;97450.45;;;4.11;44.47
47080;BME280;33067;49.296;14.470;2023-01-26T00:25:48;97445.59;;;4.15;44.09
47080;BME280;33067;49.296;14.470;2023-01-26T00:28:14;97444.47;;;4.45;43.81
47080;BME280;33067;49.296;14.470;2023-01-26T00:30:40;97445.17;;;4.93;43.25
47080;BME280;33067;49.296;14.470;2023-01-26T00:33:05;97446.61;;;4.38;43.44
47080;BME280;33067;49.296;14.470;2023-01-26T00:35:30;97437.63;;;4.49;43.35
47080;BME280;33067;49.296;14.470;2023-01-26T00:37:56;97433.94;;;4.67;42.99
47080;BME280;33067;49.296;14.470;2023-01-26T00:40:21;97430.94;;;4.77;42.82
47080;BME280;33067;49.296;14.470;2023-01-26T00:42:46;97428.98;;;4.70;42.87
47080;BME280;33067;49.296;14.470;2023-01-26T00:45:11;97431.02;;;4.81;42.66
47080;BME280;33067;49.296;14.470;2023-01-26T00:47:37;97432.58;;;4.49;42.93
47080;BME280;33067;49.296;14.470;2023-01-26T00:50:02;97433.35;;;4.70;42.67
47080;BME280;33067;49.296;14.470;2023-01-26T00:52:28;97431.51;;;4.66;42.89
47080;BME280;33067;49.296;14.470;2023-01-26T00:54:53;97431.89;;;4.71;42.80
47080;BME280;33067;49.296;14.470;2023-01-26T00:57:18;97433.88;;;4.64;42.80
47080;BME280;33067;49.296;14.470;2023-01-26T00:59:44;97435.14;;;4.73;42.61
47080;BME280;33067;49.296;14.470;2023-01-26T01:02:10;97435.17;;;4.70;42.81
47080;BME280;33067;49.296;14.470;2023-01-26T01:04:35;97434.59;;;4.75;42.83
47080;BME280;33067;49.296;14.470;2023-01-26T01:07:01;97436.97;;;4.79;42.88
47080;BME280;33067;49.296;14.470;2023-01-26T01:09:26;97441.03;;;4.87;42.73
47080;BME280;33067;49.296;14.470;2023-01-26T01:11:52;97440.19;;;4.89;42.43
47080;BME280;33067;49.296;14.470;2023-01-26T01:14:17;97436.26;;;4.83;42.64
47080;BME280;33067;49.296;14.470;2023-01-26T01:16:43;97437.32;;;4.91;42.58
47080;BME280;33067;49.296;14.470;2023-01-26T01:19:12;97433.82;;;5.11;42.22
47080;BME280;33067;49.296;14.470;2023-01-26T01:21:34;97435.04;;;4.87;42.40
47080;BME280;33067;49.296;14.470;2023-01-26T01:24:00;97436.33;;;5.13;42.80
47080;BME280;33067;49.296;14.470;2023-01-26T01:26:25;97439.55;;;4.01;43.49
47080;BME280;33067;49.296;14.470;2023-01-26T01:28:53;97437.01;;;4.40;43.18
47080;BME280;33067;49.296;14.470;2023-01-26T01:31:16;97433.07;;;4.66;42.86
47080;BME280;33067;49.296;14.470;2023-01-26T01:33:42;97426.41;;;4.53;42.63
47080;BME280;33067;49.296;14.470;2023-01-26T01:36:10;97425.65;;;4.77;42.66
47080;BME280;33067;49.296;14.470;2023-01-26T01:38:33;97431.64;;;4.31;43.01
47080;BME280;33067;49.296;14.470;2023-01-26T01:40:59;97421.43;;;4.55;42.89
47080;BME280;33067;49.296;14.470;2023-01-26T01:43:27;97415.56;;;4.46;42.89
47080;BME280;33067;49.296;14.470;2023-01-26T01:45:51;97414.33;;;4.39;43.22
47080;BME280;33067;49.296;14.470;2023-01-26T01:48:21;97412.02;;;5.05;42.97
47080;BME280;33067;49.296;14.470;2023-01-26T01:50:42;97411.74;;;4.66;42.62
47080;BME280;33067;49.296;14.470;2023-01-26T01:53:08;97414.64;;;4.58;43.08
47080;BME280;33067;49.296;14.470;2023-01-26T01:55:32;97417.24;;;3.74;44.12
47080;BME280;33067;49.296;14.470;2023-01-26T01:57:58;97416.68;;;4.01;44.61
47080;BME280;33067;49.296;14.470;2023-01-26T02:00:23;97417.69;;;3.98;44.08
47080;BME280;33067;49.296;14.470;2023-01-26T02:02:50;97416.67;;;4.05;43.85
47080;BME280;33067;49.296;14.470;2023-01-26T02:05:20;97409.65;;;4.53;43.52
47080;BME280;33067;49.296;14.470;2023-01-26T02:07:39;97410.73;;;4.40;43.40
47080;BME280;33067;49.296;14.470;2023-01-26T02:10:06;97415.31;;;4.32;43.05
47080;BME280;33067;49.296;14.470;2023-01-26T02:12:32;97418.74;;;4.15;43.58
47080;BME280;33067;49.296;14.470;2023-01-26T02:14:57;97410.37;;;4.23;43.54
47080;BME280;33067;49.296;14.470;2023-01-26T02:17:21;97402.52;;;4.36;43.66
47080;BME280;33067;49.296;14.470;2023-01-26T02:19:52;97400.36;;;4.28;43.45
47080;BME280;33067;49.296;14.470;2023-01-26T02:22:18;97399.73;;;4.43;43.21
47080;BME280;33067;49.296;14.470;2023-01-26T02:24:37;97397.81;;;4.41;42.62
47080;BME280;33067;49.296;14.470;2023-01-26T02:27:02;97399.03;;;4.06;43.65
47080;BME280;33067;49.296;14.470;2023-01-26T02:29:28;97398.54;;;4.32;43.28
47080;BME280;33067;49.296;14.470;2023-01-26T02:31:54;97394.97;;;4.20;43.45
47080;BME280;33067;49.296;14.470;2023-01-26T02:34:19;97393.33;;;3.91;43.84
47080;BME280;33067;49.296;14.470;2023-01-26T02:36:44;97393.19;;;3.71;44.80
47080;BME280;33067;49.296;14.470;2023-01-26T02:39:20;97393.63;;;3.98;44.30
47080;BME280;33067;49.296;14.470;2023-01-26T02:41:36;97392.03;;;4.13;43.56
47080;BME280;33067;49.296;14.470;2023-01-26T02:44:03;97390.87;;;3.75;44.25
47080;BME280;33067;49.296;14.470;2023-01-26T02:46:26;97390.15;;;3.26;45.37
47080;BME280;33067;49.296;14.470;2023-01-26T02:48:52;97389.93;;;3.41;45.64
47080;BME280;33067;49.296;14.470;2023-01-26T02:51:17;97384.19;;;3.67;45.01
47080;BME280;33067;49.296;14.470;2023-01-26T02:53:42;97379.17;;;3.94;44.56
47080;BME280;33067;49.296;14.470;2023-01-26T02:56:07;97380.73;;;4.18;44.09
47080;BME280;33067;49.296;14.470;2023-01-26T02:58:33;97383.33;;;4.15;44.23
47080;BME280;33067;49.296;14.470;2023-01-26T03:00:58;97384.88;;;4.24;43.92
47080;BME280;33067;49.296;14.470;2023-01-26T03:03:26;97385.47;;;3.88;43.29
47080;BME280;33067;49.296;14.470;2023-01-26T03:05:49;97382.70;;;3.65;44.14
47080;BME280;33067;49.296;14.470;2023-01-26T03:08:14;97380.22;;;4.39;43.81
47080;BME280;33067;49.296;14.470;2023-01-26T03:12:59;97381.90;;;3.55;44.37
47080;BME280;33067;49.296;14.470;2023-01-26T03:15:25;97377.72;;;3.57;44.45
47080;BME280;33067;49.296;14.470;2023-01-26T03:17:51;97376.08;;;3.46;44.52
47080;BME280;33067;49.296;14.470;2023-01-26T03:20:16;97368.14;;;4.09;44.05
47080;BME280;33067;49.296;14.470;2023-01-26T03:22:41;97366.68;;;4.60;43.65
47080;BME280;33067;49.296;14.470;2023-01-26T03:25:08;97365.34;;;4.64;43.08
47080;BME280;33067;49.296;14.470;2023-01-26T03:27:37;97364.83;;;4.67;43.72
47080;BME280;33067;49.296;14.470;2023-01-26T03:29:59;97356.84;;;4.51;42.86
47080;BME280;33067;49.296;14.470;2023-01-26T03:32:24;97349.38;;;3.84;43.92
47080;BME280;33067;49.296;14.470;2023-01-26T03:34:49;97353.43;;;3.82;44.34
47080;BME280;33067;49.296;14.470;2023-01-26T03:37:15;97356.69;;;3.86;44.96
47080;BME280;33067;49.296;14.470;2023-01-26T03:39:41;97357.40;;;3.33;44.80
47080;BME280;33067;49.296;14.470;2023-01-26T03:42:06;97351.70;;;4.20;44.62
47080;BME280;33067;49.296;14.470;2023-01-26T03:44:32;97342.56;;;4.25;43.90
47080;BME280;33067;49.296;14.470;2023-01-26T03:46:57;97347.19;;;3.85;44.87
47080;BME280;33067;49.296;14.470;2023-01-26T03:49:23;97346.15;;;3.93;44.72
47080;BME280;33067;49.296;14.470;2023-01-26T03:51:48;97340.65;;;4.22;44.14
47080;BME280;33067;49.296;14.470;2023-01-26T03:54:13;97338.22;;;4.49;44.01
47080;BME280;33067;49.296;14.470;2023-01-26T03:56:39;97335.92;;;4.37;43.37
47080;BME280;33067;49.296;14.470;2023-01-26T03:59:06;97339.27;;;4.42;43.65
47080;BME280;33067;49.296;14.470;2023-01-26T04:01:30;97337.70;;;4.24;43.55
47080;BME280;33067;49.296;14.470;2023-01-26T04:03:56;97332.64;;;4.56;43.18
47080;BME280;33067;49.296;14.470;2023-01-26T04:06:21;97333.33;;;4.20;43.27
47080;BME280;33067;49.296;14.470;2023-01-26T04:08:46;97339.39;;;3.90;44.06
47080;BME280;33067;49.296;14.470;2023-01-26T04:11:12;97331.59;;;3.96;44.45
47080;BME280;33067;49.296;14.470;2023-01-26T04:13:38;97325.54;;;4.06;43.59
47080;BME280;33067;49.296;14.470;2023-01-26T04:16:04;97325.19;;;4.24;43.87
47080;BME280;33067;49.296;14.470;2023-01-26T04:18:28;97320.54;;;4.07;44.26
47080;BME280;33067;49.296;14.470;2023-01-26T04:20:54;97320.60;;;4.28;44.11
47080;BME280;33067;49.296;14.470;2023-01-26T04:23:20;97317.24;;;3.58;44.19
47080;BME280;33067;49.296;14.470;2023-01-26T04:25:46;97312.83;;;4.02;44.69
47080;BME280;33067;49.296;14.470;2023-01-26T04:28:11;97307.45;;;4.48;44.02
47080;BME280;33067;49.296;14.470;2023-01-26T04:30:37;97307.54;;;4.13;43.80
47080;BME280;33067;49.296;14.470;2023-01-26T04:33:02;97306.36;;;4.26;43.67
47080;BME280;33067;49.296;14.470;2023-01-26T04:35:28;97302.34;;;3.87;44.12
47080;BME280;33067;49.296;14.470;2023-01-26T04:37:53;97298.11;;;4.29;43.95
47080;BME280;33067;49.296;14.470;2023-01-26T04:40:19;97296.07;;;4.43;43.78
47080;BME280;33067;49.296;14.470;2023-01-26T04:42:44;97294.21;;;4.20;43.46
47080;BME280;33067;49.296;14.470;2023-01-26T04:45:10;97288.50;;;4.75;43.43
47080;BME280;33067;49.296;14.470;2023-01-26T04:47:35;97284.87;;;4.39;43.22
47080;BME280;33067;49.296;14.470;2023-01-26T04:50:01;97288.70;;;4.75;43.31
47080;BME280;33067;49.296;14.470;2023-01-26T04:52:26;97283.64;;;4.31;43.40
47080;BME280;33067;49.296;14.470;2023-01-26T04:54:51;97283.34;;;4.41;42.64
47080;BME280;33067;49.296;14.470;2023-01-26T04:57:17;97285.76;;;4.45;43.38
47080;BME280;33067;49.296;14.470;2023-01-26T04:59:42;97287.40;;;4.06;43.99
47080;BME280;33067;49.296;14.470;2023-01-26T05:02:08;97278.04;;;4.40;43.91
47080;BME280;33067;49.296;14.470;2023-01-26T05:04:34;97278.12;;;4.31;43.87
47080;BME280;33067;49.296;14.470;2023-01-26T05:06:59;97283.72;;;4.33;43.71
47080;BME280;33067;49.296;14.470;2023-01-26T05:09:25;97285.04;;;3.78;44.40
47080;BME280;33067;49.296;14.470;2023-01-26T05:11:50;97283.65;;;3.91;44.16
47080;BME280;33067;49.296;14.470;2023-01-26T05:14:16;97282.80;;;4.61;43.64
47080;BME280;33067;49.296;14.470;2023-01-26T05:16:41;97283.88;;;4.22;43.32
47080;BME280;33067;49.296;14.470;2023-01-26T05:19:07;97283.72;;;4.18;43.35
47080;BME280;33067;49.296;14.470;2023-01-26T05:21:32;97284.50;;;4.69;42.89
47080;BME280;33067;49.296;14.470;2023-01-26T05:23:58;97286.48;;;4.07;42.90
47080;BME280;33067;49.296;14.470;2023-01-26T05:26:23;97285.66;;;4.16;43.13
47080;BME280;33067;49.296;14.470;2023-01-26T05:28:48;97285.24;;;3.87;43.99
47080;BME280;33067;49.296;14.470;2023-01-26T05:31:14;97285.15;;;4.29;43.94
47080;BME280;33067;49.296;14.470;2023-01-26T05:33:40;97285.19;;;4.26;43.72
47080;BME280;33067;49.296;14.470;2023-01-26T05:36:07;97284.67;;;4.40;43.20
47080;BME280;33067;49.296;14.470;2023-01-26T05:38:31;97285.61;;;4.34;43.57
47080;BME280;33067;49.296;14.470;2023-01-26T05:40:57;97281.35;;;3.99;43.36
47080;BME280;33067;49.296;14.470;2023-01-26T05:43:23;97281.10;;;3.65;44.06
47080;BME280;33067;49.296;14.470;2023-01-26T05:45:48;97283.57;;;4.11;43.88
47080;BME280;33067;49.296;14.470;2023-01-26T05:48:13;97283.95;;;3.77;44.08
47080;BME280;33067;49.296;14.470;2023-01-26T05:50:39;97288.94;;;3.33;45.02
47080;BME280;33067;49.296;14.470;2023-01-26T05:53:05;97288.63;;;3.40;44.70
47080;BME280;33067;49.296;14.470;2023-01-26T05:55:30;97282.75;;;3.47;44.44
47080;BME280;33067;49.296;14.470;2023-01-26T05:57:55;97284.28;;;3.64;43.89
47080;BME280;33067;49.296;14.470;2023-01-26T06:00:22;97285.91;;;3.66;44.29
47080;BME280;33067;49.296;14.470;2023-01-26T06:02:46;97285.18;;;3.75;43.78
47080;BME280;33067;49.296;14.470;2023-01-26T06:05:12;97285.71;;;3.95;43.69
47080;BME280;33067;49.296;14.470;2023-01-26T06:07:37;97287.43;;;3.96;43.80
47080;BME280;33067;49.296;14.470;2023-01-26T06:10:03;97285.67;;;4.22;43.42
47080;BME280;33067;49.296;14.470;2023-01-26T06:12:28;97283.39;;;4.44;42.80
47080;BME280;33067;49.296;14.470;2023-01-26T06:14:53;97279.41;;;4.67;42.41
47080;BME280;33067;49.296;14.470;2023-01-26T06:17:19;97278.81;;;4.32;42.33
47080;BME280;33067;49.296;14.470;2023-01-26T06:19:44;97277.02;;;4.23;42.31
47080;BME280;33067;49.296;14.470;2023-01-26T06:22:10;97276.86;;;4.38;42.86
47080;BME280;33067;49.296;14.470;2023-01-26T06:24:35;97280.62;;;4.26;43.06
47080;BME280;33067;49.296;14.470;2023-01-26T06:27:00;97280.37;;;4.10;43.03
47080;BME280;33067;49.296;14.470;2023-01-26T06:29:26;97279.59;;;4.41;43.08
47080;BME280;33067;49.296;14.470;2023-01-26T06:31:51;97278.03;;;3.41;43.91
47080;BME280;33067;49.296;14.470;2023-01-26T06:34:16;97277.02;;;3.54;43.88
47080;BME280;33067;49.296;14.470;2023-01-26T06:36:42;97276.85;;;3.90;44.15
47080;BME280;33067;49.296;14.470;2023-01-26T06:39:09;97276.13;;;4.13;44.05
47080;BME280;33067;49.296;14.470;2023-01-26T06:41:33;97273.59;;;4.17;43.24
47080;BME280;33067;49.296;14.470;2023-01-26T06:43:59;97271.86;;;4.39;43.20
47080;BME280;33067;49.296;14.470;2023-01-26T06:46:25;97275.15;;;4.19;43.52
47080;BME280;33067;49.296;14.470;2023-01-26T06:48:50;97275.74;;;4.03;43.65
47080;BME280;33067;49.296;14.470;2023-01-26T06:53:42;97274.04;;;4.52;43.00
47080;BME280;33067;49.296;14.470;2023-01-26T06:56:06;97273.31;;;4.58;43.20
47080;BME280;33067;49.296;14.470;2023-01-26T06:58:32;97270.64;;;4.38;43.06
47080;BME280;33067;49.296;14.470;2023-01-26T07:00:58;97273.96;;;4.10;42.96
47080;BME280;33067;49.296;14.470;2023-01-26T07:03:23;97275.45;;;4.54;42.71
47080;BME280;33067;49.296;14.470;2023-01-26T07:05:48;97280.00;;;4.39;42.80
47080;BME280;33067;49.296;14.470;2023-01-26T07:08:14;97280.84;;;4.41;42.59
47080;BME280;33067;49.296;14.470;2023-01-26T07:10:39;97278.63;;;4.65;42.93
47080;BME280;33067;49.296;14.470;2023-01-26T07:13:05;97276.58;;;4.40;42.87
47080;BME280;33067;49.296;14.470;2023-01-26T07:15:31;97276.41;;;4.87;42.44
47080;BME280;33067;49.296;14.470;2023-01-26T07:17:56;97271.98;;;4.36;42.50
47080;BME280;33067;49.296;14.470;2023-01-26T07:20:21;97270.85;;;4.36;42.60
47080;BME280;33067;49.296;14.470;2023-01-26T07:22:47;97269.89;;;4.27;42.29
47080;BME280;33067;49.296;14.470;2023-01-26T07:25:12;97268.58;;;4.58;42.37
47080;BME280;33067;49.296;14.470;2023-01-26T07:27:37;97267.05;;;4.38;42.02
47080;BME280;33067;49.296;14.470;2023-01-26T07:30:04;97265.36;;;4.35;42.02
47080;BME280;33067;49.296;14.470;2023-01-26T07:32:28;97266.22;;;4.73;41.62
47080;BME280;33067;49.296;14.470;2023-01-26T07:34:54;97267.66;;;4.42;41.96
47080;BME280;33067;49.296;14.470;2023-01-26T07:37:19;97265.19;;;4.20;42.14
47080;BME280;33067;49.296;14.470;2023-01-26T07:39:45;97266.40;;;4.18;42.08
47080;BME280;33067;49.296;14.470;2023-01-26T07:42:10;97266.72;;;4.47;42.48
47080;BME280;33067;49.296;14.470;2023-01-26T07:44:35;97265.54;;;4.26;42.56
47080;BME280;33067;49.296;14.470;2023-01-26T07:47:01;97268.23;;;4.63;42.25
47080;BME280;33067;49.296;14.470;2023-01-26T07:49:26;97267.72;;;4.50;42.38
47080;BME280;33067;49.296;14.470;2023-01-26T07:51:52;97265.39;;;4.83;42.06
47080;BME280;33067;49.296;14.470;2023-01-26T07:54:17;97264.92;;;4.85;42.18
47080;BME280;33067;49.296;14.470;2023-01-26T07:56:42;97263.71;;;4.27;41.11
47080;BME280;33067;49.296;14.470;2023-01-26T07:59:09;97266.47;;;4.39;42.49
47080;BME280;33067;49.296;14.470;2023-01-26T08:01:33;97262.82;;;3.89;42.55
47080;BME280;33067;49.296;14.470;2023-01-26T08:03:58;97260.34;;;4.53;42.25
47080;BME280;33067;49.296;14.470;2023-01-26T08:06:24;97262.02;;;4.75;42.12
47080;BME280;33067;49.296;14.470;2023-01-26T08:08:50;97261.01;;;4.27;42.11
47080;BME280;33067;49.296;14.470;2023-01-26T08:11:17;97261.36;;;4.30;42.02
47080;BME280;33067;49.296;14.470;2023-01-26T08:13:41;97259.42;;;4.49;41.50
47080;BME280;33067;49.296;14.470;2023-01-26T08:16:08;97256.76;;;3.73;41.45
47080;BME280;33067;49.296;14.470;2023-01-26T08:18:32;97256.80;;;3.88;42.40
47080;BME280;33067;49.296;14.470;2023-01-26T08:20:57;97254.26;;;3.91;42.41
47080;BME280;33067;49.296;14.470;2023-01-26T08:23:22;97253.19;;;3.64;43.13
47080;BME280;33067;49.296;14.470;2023-01-26T08:25:47;97248.10;;;3.50;43.41
47080;BME280;33067;49.296;14.470;2023-01-26T08:28:13;97245.63;;;3.80;42.89
47080;BME280;33067;49.296;14.470;2023-01-26T08:30:39;97248.44;;;3.89;42.78
47080;BME280;33067;49.296;14.470;2023-01-26T08:33:06;97249.25;;;3.80;42.99
47080;BME280;33067;49.296;14.470;2023-01-26T08:35:30;97245.70;;;3.98;42.43
47080;BME280;33067;49.296;14.470;2023-01-26T08:37:56;97244.39;;;3.46;42.72
47080;BME280;33067;49.296;14.470;2023-01-26T08:40:21;97241.49;;;4.19;42.31
47080;BME280;33067;49.296;14.470;2023-01-26T08:42:46;97241.43;;;4.13;42.21
47080;BME280;33067;49.296;14.470;2023-01-26T08:45:11;97241.99;;;3.95;42.43
47080;BME280;33067;49.296;14.470;2023-01-26T08:47:37;97240.86;;;3.90;41.76
47080;BME280;33067;49.296;14.470;2023-01-26T08:50:03;97238.72;;;4.34;41.48
47080;BME280;33067;49.296;14.470;2023-01-26T08:52:28;97236.59;;;3.81;41.77
47080;BME280;33067;49.296;14.470;2023-01-26T08:54:54;97234.40;;;4.45;41.72
47080;BME280;33067;49.296;14.470;2023-01-26T08:57:19;97236.78;;;4.20;41.40
47080;BME280;33067;49.296;14.470;2023-01-26T08:59:45;97238.24;;;4.20;41.60
47080;BME280;33067;49.296;14.470;2023-01-26T09:02:11;97239.69;;;3.61;42.29
47080;BME280;33067;49.296;14.470;2023-01-26T09:04:36;97240.67;;;3.82;41.96
47080;BME280;33067;49.296;14.470;2023-01-26T09:07:02;97241.41;;;3.64;41.98
47080;BME280;33067;49.296;14.470;2023-01-26T09:09:28;97239.11;;;4.53;40.93
47080;BME280;33067;49.296;14.470;2023-01-26T09:11:54;97241.03;;;4.34;40.76
47080;BME280;33067;49.296;14.470;2023-01-26T09:14:18;97240.94;;;4.16;40.72
47080;BME280;33067;49.296;14.470;2023-01-26T09:16:44;97240.23;;;4.09;40.49
47080;BME280;33067;49.296;14.470;2023-01-26T09:19:10;97238.27;;;4.34;40.01
47080;BME280;33067;49.296;14.470;2023-01-26T09:21:35;97238.75;;;4.26;40.05
47080;BME280;33067;49.296;14.470;2023-01-26T09:24:01;97237.11;;;3.93;40.75
47080;BME280;33067;49.296;14.470;2023-01-26T09:26:28;97240.25;;;3.54;41.94
47080;BME280;33067;49.296;14.470;2023-01-26T09:28:52;97245.14;;;3.43;42.59
47080;BME280;33067;49.296;14.470;2023-01-26T09:31:18;97246.83;;;3.50;42.81
47080;BME280;33067;49.296;14.470;2023-01-26T09:33:43;97248.39;;;3.52;42.94
47080;BME280;33067;49.296;14.470;2023-01-26T09:36:10;97250.90;;;3.31;42.86
47080;BME280;33067;49.296;14.470;2023-01-26T09:38:35;97251.51;;;1.97;43.10
47080;BME280;33067;49.296;14.470;2023-01-26T09:41:05;97250.78;;;3.28;42.42
47080;BME280;33067;49.296;14.470;2023-01-26T09:43:37;97248.38;;;3.49;42.50
47080;BME280;33067;49.296;14.470;2023-01-26T09:45:59;97251.03;;;3.01;43.41
47080;BME280;33067;49.296;14.470;2023-01-26T09:48:23;97247.98;;;2.88;43.70
47080;BME280;33067;49.296;14.470;2023-01-26T09:50:47;97252.39;;;3.11;43.37
47080;BME280;33067;49.296;14.470;2023-01-26T09:53:13;97254.53;;;2.99;43.82
47080;BME280;33067;49.296;14.470;2023-01-26T09:55:33;97255.01;;;3.00;44.07
47080;BME280;33067;49.296;14.470;2023-01-26T09:58:02;97254.82;;;3.08;43.86
47080;BME280;33067;49.296;14.470;2023-01-26T10:00:29;97255.56;;;3.12;43.72
47080;BME280;33067;49.296;14.470;2023-01-26T10:02:55;97253.31;;;3.17;43.48
47080;BME280;33067;49.296;14.470;2023-01-26T10:05:19;97251.27;;;3.49;43.07
47080;BME280;33067;49.296;14.470;2023-01-26T10:07:41;97247.36;;;3.89;41.60
47080;BME280;33067;49.296;14.470;2023-01-26T10:10:08;97243.26;;;4.18;41.75
47080;BME280;33067;49.296;14.470;2023-01-26T10:12:33;97236.47;;;4.53;40.89
47080;BME280;33067;49.296;14.470;2023-01-26T10:15:02;97236.36;;;3.92;40.95
47080;BME280;33067;49.296;14.470;2023-01-26T10:17:27;97229.85;;;4.05;40.79
47080;BME280;33067;49.296;14.470;2023-01-26T10:19:51;97229.81;;;3.81;41.25
47080;BME280;33067;49.296;14.470;2023-01-26T10:22:17;97226.24;;;4.12;41.40
47080;BME280;33067;49.296;14.470;2023-01-26T10:24:38;97227.63;;;3.35;42.87
47080;BME280;33067;49.296;14.470;2023-01-26T10:27:08;97226.27;;;3.50;43.45
47080;BME280;33067;49.296;14.470;2023-01-26T10:29:29;97222.62;;;2.97;44.11
47080;BME280;33067;49.296;14.470;2023-01-26T10:31:54;97224.53;;;2.11;46.37
47080;BME280;33067;49.296;14.470;2023-01-26T10:34:23;97224.31;;;2.26;46.37
47080;BME280;33067;49.296;14.470;2023-01-26T10:36:46;97220.98;;;2.34;46.39
47080;BME280;33067;49.296;14.470;2023-01-26T10:39:13;97222.29;;;2.39;46.90
47080;BME280;33067;49.296;14.470;2023-01-26T10:41:37;97224.67;;;2.15;46.94
47080;BME280;33067;49.296;14.470;2023-01-26T10:44:17;97222.61;;;2.68;47.36
47080;BME280;33067;49.296;14.470;2023-01-26T10:46:31;97216.12;;;2.58;46.90
47080;BME280;33067;49.296;14.470;2023-01-26T10:48:54;97206.66;;;3.06;46.29
47080;BME280;33067;49.296;14.470;2023-01-26T10:51:24;97204.93;;;3.42;45.80
47080;BME280;33067;49.296;14.470;2023-01-26T10:53:44;97203.52;;;3.47;45.49
47080;BME280;33067;49.296;14.470;2023-01-26T10:56:13;97202.38;;;2.96;46.47
47080;BME280;33067;49.296;14.470;2023-01-26T10:58:44;97204.01;;;2.89;46.53
47080;BME280;33067;49.296;14.470;2023-01-26T11:01:01;97209.70;;;2.73;46.86
47080;BME280;33067;49.296;14.470;2023-01-26T11:03:26;97207.02;;;2.52;47.05
47080;BME280;33067;49.296;14.470;2023-01-26T11:08:30;97208.95;;;2.73;46.94
47080;BME280;33067;49.296;14.470;2023-01-26T11:10:51;97207.82;;;1.98;47.70
47080;BME280;33067;49.296;14.470;2023-01-26T11:13:14;97205.59;;;2.66;47.47
47080;BME280;33067;49.296;14.470;2023-01-26T11:15:36;97196.02;;;3.16;46.36
47080;BME280;33067;49.296;14.470;2023-01-26T11:18:07;97193.66;;;2.99;46.46
47080;BME280;33067;49.296;14.470;2023-01-26T11:20:42;97191.65;;;2.85;46.47
47080;BME280;33067;49.296;14.470;2023-01-26T11:22:57;97196.80;;;2.84;46.60
47080;BME280;33067;49.296;14.470;2023-01-26T11:25:23;97201.06;;;2.56;47.04
47080;BME280;33067;49.296;14.470;2023-01-26T11:27:51;97200.79;;;2.86;46.12
47080;BME280;33067;49.296;14.470;2023-01-26T11:30:23;97207.95;;;1.49;48.24
47080;BME280;33067;49.296;14.470;2023-01-26T11:32:41;97206.43;;;2.01;48.16
47080;BME280;33067;49.296;14.470;2023-01-26T11:35:08;97204.61;;;2.01;48.30
47080;BME280;33067;49.296;14.470;2023-01-26T11:37:38;97197.34;;;2.15;47.76
47080;BME280;33067;49.296;14.470;2023-01-26T11:39:57;97201.69;;;1.78;49.05
47080;BME280;33067;49.296;14.470;2023-01-26T11:42:22;97202.23;;;2.01;48.42
47080;BME280;33067;49.296;14.470;2023-01-26T11:44:56;97197.86;;;2.26;48.36
47080;BME280;33067;49.296;14.470;2023-01-26T11:47:15;97194.19;;;2.12;48.14
47080;BME280;33067;49.296;14.470;2023-01-26T11:49:52;97189.37;;;2.41;47.03
47080;BME280;33067;49.296;14.470;2023-01-26T11:52:05;97192.13;;;2.02;48.30
47080;BME280;33067;49.296;14.470;2023-01-26T11:54:33;97187.24;;;2.39;47.93
47080;BME280;33067;49.296;14.470;2023-01-26T11:56:53;97182.10;;;2.70;47.08
47080;BME280;33067;49.296;14.470;2023-01-26T11:59:17;97182.24;;;2.45;46.69
47080;BME280;33067;49.296;14.470;2023-01-26T12:01:45;97178.29;;;2.77;46.12
47080;BME280;33067;49.296;14.470;2023-01-26T12:04:05;97182.53;;;1.94;47.85
47080;BME280;33067;49.296;14.470;2023-01-26T12:06:36;97182.47;;;1.86;48.02
47080;BME280;33067;49.296;14.470;2023-01-26T12:09:01;97178.77;;;1.87;48.11
47080;BME280;33067;49.296;14.470;2023-01-26T12:11:24;97178.79;;;1.93;48.11
47080;BME280;33067;49.296;14.470;2023-01-26T12:13:48;97180.36;;;1.47;48.60
47080;BME280;33067;49.296;14.470;2023-01-26T12:16:16;97179.50;;;1.47;49.03
47080;BME280;33067;49.296;14.470;2023-01-26T12:18:42;97180.37;;;2.18;48.02
47080;BME280;33067;49.296;14.470;2023-01-26T12:21:05;97184.52;;;1.74;47.87
47080;BME280;33067;49.296;14.470;2023-01-26T12:23:32;97180.20;;;2.28;47.79
47080;BME280;33067;49.296;14.470;2023-01-26T12:25:58;97175.69;;;1.55;48.52
47080;BME280;33067;49.296;14.470;2023-01-26T12:28:22;97173.72;;;1.82;48.01
47080;BME280;33067;49.296;14.470;2023-01-26T12:30:50;97173.58;;;1.86;48.29
47080;BME280;33067;49.296;14.470;2023-01-26T12:33:09;97171.32;;;1.59;48.55
47080;BME280;33067;49.296;14.470;2023-01-26T12:35:48;97170.13;;;1.51;48.65
47080;BME280;33067;49.296;14.470;2023-01-26T12:38:02;97172.44;;;1.22;49.29
47080;BME280;33067;49.296;14.470;2023-01-26T12:40:32;97172.08;;;0.31;50.30
47080;BME280;33067;49.296;14.470;2023-01-26T12:42:57;97163.95;;;1.05;49.75
47080;BME280;33067;49.296;14.470;2023-01-26T12:45:19;97159.65;;;0.94;49.54
47080;BME280;33067;49.296;14.470;2023-01-26T12:47:42;97160.96;;;0.01;51.71
47080;BME280;33067;49.296;14.470;2023-01-26T12:50:10;97156.18;;;0.90;50.94
47080;BME280;33067;49.296;14.470;2023-01-26T12:52:34;97152.96;;;0.63;50.96
47080;BME280;33067;49.296;14.470;2023-01-26T12:55:00;97155.49;;;1.41;49.90
47080;BME280;33067;49.296;14.470;2023-01-26T12:57:24;97153.95;;;0.61;49.79